createdAt,value
2018-07-04T00:00:45.291Z,17.50
2018-07-04T00:01:45.294Z,17.54
2018-07-04T00:02:45.289Z,17.58
2018-07-04T00:03:45.407Z,17.68
2018-07-04T00:04:45.347Z,17.66
2018-07-04T00:05:45.358Z,17.68
2018-07-04T00:06:45.343Z,17.63
2018-07-04T00:07:45.356Z,17.68
2018-07-04T00:08:45.549Z,17.68
2018-07-04T00:09:45.392Z,17.71
2018-07-04T00:10:45.409Z,17.65
2018-07-04T00:11:45.427Z,17.60
2018-07-04T00:12:45.432Z,17.65
2018-07-04T00:13:45.590Z,17.52
2018-07-04T00:14:45.453Z,17.54
2018-07-04T00:15:45.492Z,17.54
2018-07-04T00:16:45.503Z,17.52
2018-07-04T00:17:45.520Z,17.55
2018-07-04T00:18:45.605Z,17.54
2018-07-04T00:19:45.518Z,17.54
2018-07-04T00:20:45.543Z,17.50
2018-07-04T00:21:45.549Z,17.45
2018-07-04T00:22:45.587Z,17.38
2018-07-04T00:23:45.670Z,17.36
2018-07-04T00:24:45.581Z,17.31
2018-07-04T00:25:45.664Z,17.39
2018-07-04T00:26:45.640Z,17.35
2018-07-04T00:27:45.627Z,17.32
2018-07-04T00:28:45.740Z,17.25
2018-07-04T00:29:45.676Z,17.27
2018-07-04T00:30:45.673Z,17.21
2018-07-04T00:31:45.702Z,17.24
2018-07-04T00:32:45.717Z,17.27
2018-07-04T00:33:45.884Z,17.21
2018-07-04T00:34:45.745Z,17.21
2018-07-04T00:35:45.733Z,17.22
2018-07-04T00:36:45.773Z,17.39
2018-07-04T00:37:45.757Z,17.31
2018-07-04T00:38:45.866Z,17.35
2018-07-04T00:39:45.821Z,17.39
2018-07-04T00:40:45.797Z,17.49
2018-07-04T00:41:45.836Z,17.39
2018-07-04T00:42:45.827Z,17.35
2018-07-04T00:43:45.961Z,17.31
2018-07-04T00:44:45.879Z,17.35
2018-07-04T00:45:45.859Z,17.35
2018-07-04T00:46:45.877Z,17.38
2018-07-04T00:47:45.886Z,17.30
2018-07-04T00:48:46.029Z,17.31
2018-07-04T00:49:45.935Z,17.32
2018-07-04T00:50:45.954Z,17.25
2018-07-04T00:51:45.942Z,17.38
2018-07-04T00:52:45.983Z,17.22
2018-07-04T00:53:46.128Z,17.30
2018-07-04T00:54:45.989Z,17.30
2018-07-04T00:55:46.011Z,17.27
2018-07-04T00:56:46.012Z,17.25
2018-07-04T00:57:46.026Z,17.24
2018-07-04T00:58:46.135Z,17.22
2018-07-04T00:59:46.045Z,17.20
2018-07-04T01:00:46.066Z,17.24
2018-07-04T01:01:46.104Z,17.22
2018-07-04T01:02:46.088Z,17.18
2018-07-04T01:03:46.200Z,17.10
2018-07-04T01:04:46.140Z,17.15
2018-07-04T01:05:46.130Z,17.15
2018-07-04T01:06:46.144Z,17.06
2018-07-04T01:07:46.186Z,17.17
2018-07-04T01:08:46.270Z,17.12
2018-07-04T01:09:46.201Z,17.17
2018-07-04T01:10:46.199Z,17.18
2018-07-04T01:11:46.206Z,17.13
2018-07-04T01:12:46.219Z,17.13
2018-07-04T01:13:46.392Z,17.17
2018-07-04T01:14:46.245Z,17.10
2018-07-04T01:15:46.261Z,17.12
2018-07-04T01:16:46.268Z,17.10
2018-07-04T01:17:46.285Z,17.10
2018-07-04T01:18:46.403Z,17.12
2018-07-04T01:19:46.339Z,17.07
2018-07-04T01:20:46.323Z,17.07
2018-07-04T01:21:46.371Z,17.15
2018-07-04T01:22:46.380Z,17.12
2018-07-04T01:23:46.481Z,17.17
2018-07-04T01:24:46.377Z,17.18
2018-07-04T01:25:46.420Z,17.10
2018-07-04T01:26:46.405Z,17.17
2018-07-04T01:27:46.443Z,17.10
2018-07-04T01:28:46.557Z,17.17
2018-07-04T01:29:46.445Z,17.17
2018-07-04T01:30:46.458Z,17.17
2018-07-04T01:31:46.489Z,17.15
2018-07-04T01:32:46.507Z,17.13
2018-07-04T01:33:46.655Z,17.22
2018-07-04T01:34:46.507Z,17.22
2018-07-04T01:35:46.546Z,17.30
2018-07-04T01:36:46.534Z,17.38
2018-07-04T01:37:46.546Z,17.28
2018-07-04T01:38:46.660Z,17.31
2018-07-04T01:39:46.575Z,17.31
2018-07-04T01:40:46.611Z,17.35
2018-07-04T01:41:46.605Z,17.40
2018-07-04T01:42:46.637Z,17.32
2018-07-04T01:43:46.810Z,17.38
2018-07-04T01:44:46.668Z,17.32
2018-07-04T01:45:46.662Z,17.22
2018-07-04T01:46:46.696Z,17.20
2018-07-04T01:47:46.686Z,17.10
2018-07-04T01:48:46.843Z,17.09
2018-07-04T01:49:46.736Z,17.07
2018-07-04T01:50:46.748Z,17.05
2018-07-04T01:51:46.748Z,17.05
2018-07-04T01:52:46.745Z,16.91
2018-07-04T01:53:46.917Z,17.00
2018-07-04T01:54:46.779Z,16.94
2018-07-04T01:55:46.792Z,17.09
2018-07-04T01:56:46.796Z,17.06
2018-07-04T01:57:46.814Z,17.02
2018-07-04T01:58:46.974Z,17.10
2018-07-04T01:59:46.877Z,17.12
2018-07-04T02:00:46.853Z,17.07
2018-07-04T02:01:46.894Z,17.17
2018-07-04T02:02:46.874Z,17.13
2018-07-04T02:03:46.989Z,17.17
2018-07-04T02:04:46.933Z,17.18
2018-07-04T02:05:46.918Z,17.13
2018-07-04T02:06:46.929Z,17.25
2018-07-04T02:07:46.942Z,17.25
2018-07-04T02:08:46.981Z,17.22
2018-07-04T02:09:47.093Z,17.15
2018-07-04T02:10:46.981Z,17.22
2018-07-04T02:11:46.995Z,17.10
2018-07-04T02:12:47.036Z,17.18
2018-07-04T02:13:47.029Z,17.12
2018-07-04T02:14:47.236Z,17.20
2018-07-04T02:15:47.067Z,17.15
2018-07-04T02:16:47.065Z,17.15
2018-07-04T02:17:47.072Z,17.09
2018-07-04T02:18:47.085Z,17.15
2018-07-04T02:19:47.254Z,17.17
2018-07-04T02:20:47.112Z,17.17
2018-07-04T02:21:47.169Z,17.17
2018-07-04T02:22:47.137Z,17.13
2018-07-04T02:23:47.177Z,17.12
2018-07-04T02:24:47.269Z,17.10
2018-07-04T02:25:47.180Z,17.09
2018-07-04T02:26:47.202Z,17.13
2018-07-04T02:27:47.223Z,17.13
2018-07-04T02:28:47.241Z,17.18
2018-07-04T02:29:47.356Z,17.18
2018-07-04T02:30:47.247Z,17.10
2018-07-04T02:31:47.290Z,17.12
2018-07-04T02:32:47.300Z,17.18
2018-07-04T02:33:47.284Z,17.15
2018-07-04T02:34:47.473Z,17.18
2018-07-04T02:35:47.306Z,17.15
2018-07-04T02:36:47.322Z,17.12
2018-07-04T02:37:47.338Z,17.17
2018-07-04T02:38:47.351Z,17.13
2018-07-04T02:39:47.489Z,17.17
2018-07-04T02:40:47.400Z,17.13
2018-07-04T02:41:47.412Z,17.17
2018-07-04T02:42:47.400Z,17.20
2018-07-04T02:43:47.427Z,17.15
2018-07-04T02:44:47.568Z,17.17
2018-07-04T02:45:47.473Z,17.17
2018-07-04T02:46:47.487Z,17.17
2018-07-04T02:47:47.495Z,17.17
2018-07-04T02:48:47.474Z,17.12
2018-07-04T02:49:47.648Z,17.27
2018-07-04T02:50:47.514Z,17.22
2018-07-04T02:51:47.544Z,17.12
2018-07-04T02:52:47.558Z,17.27
2018-07-04T02:53:47.541Z,17.27
2018-07-04T02:54:47.733Z,17.28
2018-07-04T02:55:47.564Z,17.27
2018-07-04T02:56:47.598Z,17.28
2018-07-04T02:57:47.604Z,17.12
2018-07-04T02:58:47.631Z,17.21
2018-07-04T02:59:47.727Z,17.13
2018-07-04T03:00:47.641Z,17.21
2018-07-04T03:01:47.648Z,17.21
2018-07-04T03:02:47.666Z,17.13
2018-07-04T03:03:47.699Z,17.18
2018-07-04T03:04:47.797Z,17.22
2018-07-04T03:05:47.731Z,17.17
2018-07-04T03:06:47.713Z,17.07
2018-07-04T03:07:47.749Z,17.09
2018-07-04T03:08:47.765Z,17.07
2018-07-04T03:09:47.862Z,17.07
2018-07-04T03:10:47.773Z,17.07
2018-07-04T03:11:47.775Z,17.00
2018-07-04T03:12:47.806Z,17.09
2018-07-04T03:13:47.800Z,17.10
2018-07-04T03:14:47.944Z,17.12
2018-07-04T03:15:47.838Z,17.05
2018-07-04T03:16:47.844Z,17.02
2018-07-04T03:17:47.878Z,17.03
2018-07-04T03:18:47.896Z,17.10
2018-07-04T03:19:48.038Z,17.10
2018-07-04T03:20:47.897Z,17.10
2018-07-04T03:21:47.907Z,17.05
2018-07-04T03:22:47.917Z,17.06
2018-07-04T03:23:47.933Z,17.06
2018-07-04T03:24:47.944Z,17.03
2018-07-04T03:25:48.073Z,17.09
2018-07-04T03:26:47.969Z,17.06
2018-07-04T03:27:48.002Z,17.10
2018-07-04T03:28:48.017Z,17.13
2018-07-04T03:29:48.016Z,17.09
2018-07-04T03:30:48.151Z,17.17
2018-07-04T03:31:48.039Z,17.18
2018-07-04T03:32:48.048Z,17.20
2018-07-04T03:33:48.091Z,17.20
2018-07-04T03:34:48.077Z,17.10
2018-07-04T03:35:48.212Z,17.12
2018-07-04T03:36:48.099Z,17.15
2018-07-04T03:37:48.117Z,17.12
2018-07-04T03:38:48.125Z,17.12
2018-07-04T03:39:48.165Z,17.12
2018-07-04T03:40:48.262Z,17.17
2018-07-04T03:41:48.168Z,17.05
2018-07-04T03:42:48.190Z,17.13
2018-07-04T03:43:48.188Z,17.13
2018-07-04T03:44:48.210Z,17.07
2018-07-04T03:45:48.367Z,17.12
2018-07-04T03:46:48.257Z,17.07
2018-07-04T03:47:48.243Z,17.13
2018-07-04T03:48:48.275Z,17.12
2018-07-04T03:49:48.327Z,17.10
2018-07-04T03:50:48.435Z,17.15
2018-07-04T03:51:48.333Z,17.13
2018-07-04T03:52:48.311Z,17.10
2018-07-04T03:53:48.325Z,17.06
2018-07-04T03:54:48.339Z,17.10
2018-07-04T03:55:48.480Z,17.12
2018-07-04T03:56:48.373Z,17.10
2018-07-04T03:57:48.399Z,17.10
2018-07-04T03:58:48.388Z,17.13
2018-07-04T03:59:48.408Z,17.12
2018-07-04T04:00:48.532Z,17.15
2018-07-04T04:01:48.430Z,17.13
2018-07-04T04:02:48.440Z,17.10
2018-07-04T04:03:48.454Z,17.15
2018-07-04T04:04:48.476Z,17.10
2018-07-04T04:05:48.586Z,17.12
2018-07-04T04:06:48.492Z,17.10
2018-07-04T04:07:48.532Z,17.09
2018-07-04T04:08:48.527Z,17.05
2018-07-04T04:09:48.563Z,16.99
2018-07-04T04:10:48.727Z,17.09
2018-07-04T04:11:48.581Z,17.05
2018-07-04T04:12:48.604Z,17.12
2018-07-04T04:13:48.581Z,17.12
2018-07-04T04:14:48.619Z,17.15
2018-07-04T04:15:48.783Z,17.13
2018-07-04T04:16:48.633Z,17.12
2018-07-04T04:17:48.636Z,17.21
2018-07-04T04:18:48.661Z,17.12
2018-07-04T04:19:48.720Z,17.10
2018-07-04T04:20:48.776Z,17.15
2018-07-04T04:21:48.683Z,17.10
2018-07-04T04:22:48.697Z,17.13
2018-07-04T04:23:48.739Z,17.07
2018-07-04T04:24:48.757Z,17.10
2018-07-04T04:25:48.845Z,17.10
2018-07-04T04:26:48.774Z,17.10
2018-07-04T04:27:48.762Z,17.10
2018-07-04T04:28:48.803Z,17.17
2018-07-04T04:29:48.801Z,17.15
2018-07-04T04:30:48.900Z,17.20
2018-07-04T04:31:48.824Z,17.18
2018-07-04T04:32:48.855Z,17.17
2018-07-04T04:33:48.851Z,17.24
2018-07-04T04:34:48.878Z,17.22
2018-07-04T04:35:49.041Z,17.13
2018-07-04T04:36:48.911Z,17.10
2018-07-04T04:37:48.900Z,17.10
2018-07-04T04:38:48.908Z,17.07
2018-07-04T04:39:48.928Z,17.05
2018-07-04T04:40:48.929Z,17.10
2018-07-04T04:41:49.096Z,17.09
2018-07-04T04:42:48.980Z,17.06
2018-07-04T04:43:48.997Z,17.07
2018-07-04T04:44:48.985Z,16.95
2018-07-04T04:45:49.008Z,17.02
2018-07-04T04:46:49.156Z,16.95
2018-07-04T04:47:49.024Z,16.92
2018-07-04T04:48:49.067Z,17.02
2018-07-04T04:49:49.050Z,16.94
2018-07-04T04:50:49.098Z,17.05
2018-07-04T04:51:49.226Z,16.92
2018-07-04T04:52:49.090Z,16.99
2018-07-04T04:53:49.097Z,17.03
2018-07-04T04:54:49.162Z,17.03
2018-07-04T04:55:49.128Z,17.00
2018-07-04T04:56:49.236Z,16.99
2018-07-04T04:57:49.150Z,16.94
2018-07-04T04:58:49.162Z,17.05
2018-07-04T04:59:49.180Z,16.99
2018-07-04T05:00:49.200Z,16.99
2018-07-04T05:01:49.299Z,16.97
2018-07-04T05:02:49.239Z,16.99
2018-07-04T05:03:49.225Z,17.05
2018-07-04T05:04:49.246Z,17.00
2018-07-04T05:05:49.283Z,16.99
2018-07-04T05:06:49.371Z,17.03
2018-07-04T05:07:49.318Z,16.91
2018-07-04T05:08:49.299Z,17.00
2018-07-04T05:09:49.337Z,17.02
2018-07-04T05:10:49.324Z,16.99
2018-07-04T05:11:49.434Z,17.09
2018-07-04T05:12:49.343Z,16.88
2018-07-04T05:13:49.358Z,16.90
2018-07-04T05:14:49.385Z,16.97
2018-07-04T05:15:49.388Z,16.97
2018-07-04T05:16:49.624Z,17.00
2018-07-04T05:17:49.434Z,16.99
2018-07-04T05:18:49.433Z,17.00
2018-07-04T05:19:49.461Z,16.99
2018-07-04T05:20:49.472Z,16.94
2018-07-04T05:21:49.558Z,16.97
2018-07-04T05:22:49.493Z,16.95
2018-07-04T05:23:49.488Z,16.99
2018-07-04T05:24:49.523Z,16.97
2018-07-04T05:25:49.527Z,17.12
2018-07-04T05:26:49.622Z,17.13
2018-07-04T05:27:49.536Z,17.12
2018-07-04T05:28:49.627Z,17.12
2018-07-04T05:29:49.561Z,17.17
2018-07-04T05:30:49.599Z,17.10
2018-07-04T05:31:49.690Z,17.07
2018-07-04T05:32:49.625Z,17.07
2018-07-04T05:33:49.646Z,17.10
2018-07-04T05:34:49.638Z,17.06
2018-07-04T05:35:49.669Z,17.09
2018-07-04T05:36:49.757Z,17.13
2018-07-04T05:37:49.689Z,17.00
2018-07-04T05:38:49.683Z,17.00
2018-07-04T05:39:49.703Z,17.05
2018-07-04T05:40:49.743Z,17.00
2018-07-04T05:41:49.845Z,17.10
2018-07-04T05:42:49.749Z,17.02
2018-07-04T05:43:49.757Z,17.03
2018-07-04T05:44:49.759Z,17.03
2018-07-04T05:45:49.781Z,16.99
2018-07-04T05:46:49.934Z,17.06
2018-07-04T05:47:49.822Z,17.02
2018-07-04T05:48:49.826Z,17.09
2018-07-04T05:49:49.831Z,17.00
2018-07-04T05:50:49.841Z,17.00
2018-07-04T05:51:49.870Z,17.07
2018-07-04T05:52:50.008Z,17.07
2018-07-04T05:53:49.884Z,17.12
2018-07-04T05:54:49.882Z,17.06
2018-07-04T05:55:49.900Z,17.10
2018-07-04T05:56:49.921Z,17.10
2018-07-04T05:57:49.930Z,17.12
2018-07-04T05:58:50.043Z,17.05
2018-07-04T05:59:49.975Z,17.05
2018-07-04T06:00:49.976Z,17.13
2018-07-04T06:01:49.977Z,17.07
2018-07-04T06:02:50.045Z,17.10
2018-07-04T06:03:50.103Z,17.09
2018-07-04T06:04:50.015Z,17.15
2018-07-04T06:05:50.050Z,17.10
2018-07-04T06:06:50.035Z,17.05
2018-07-04T06:07:50.059Z,17.03
2018-07-04T06:08:50.185Z,17.02
2018-07-04T06:09:50.082Z,17.00
2018-07-04T06:10:50.117Z,17.03
2018-07-04T06:11:50.102Z,17.06
2018-07-04T06:12:50.142Z,17.02
2018-07-04T06:13:50.290Z,17.00
2018-07-04T06:14:50.156Z,17.10
2018-07-04T06:15:50.156Z,17.06
2018-07-04T06:16:50.168Z,17.10
2018-07-04T06:17:50.180Z,17.12
2018-07-04T06:18:50.345Z,17.07
2018-07-04T06:19:50.232Z,17.10
2018-07-04T06:20:50.244Z,17.18
2018-07-04T06:21:50.237Z,17.15
2018-07-04T06:22:50.275Z,17.09
2018-07-04T06:23:50.359Z,17.13
2018-07-04T06:24:50.355Z,17.15
2018-07-04T06:25:50.286Z,17.12
2018-07-04T06:26:50.327Z,17.10
2018-07-04T06:27:50.338Z,17.13
2018-07-04T06:28:50.500Z,17.15
2018-07-04T06:29:50.343Z,17.17
2018-07-04T06:30:50.372Z,17.17
2018-07-04T06:31:50.386Z,17.22
2018-07-04T06:32:50.379Z,17.18
2018-07-04T06:33:50.498Z,17.21
2018-07-04T06:34:50.403Z,17.21
2018-07-04T06:35:50.409Z,17.17
2018-07-04T06:36:50.457Z,17.10
2018-07-04T06:37:50.435Z,17.21
2018-07-04T06:38:50.553Z,17.21
2018-07-04T06:39:50.470Z,17.10
2018-07-04T06:40:50.498Z,17.18
2018-07-04T06:41:50.495Z,17.22
2018-07-04T06:42:50.536Z,17.18
2018-07-04T06:43:50.645Z,17.20
2018-07-04T06:44:50.558Z,17.21
2018-07-04T06:45:50.551Z,17.12
2018-07-04T06:46:50.582Z,17.22
2018-07-04T06:47:50.593Z,17.27
2018-07-04T06:48:50.718Z,17.21
2018-07-04T06:49:50.608Z,17.18
2018-07-04T06:50:50.634Z,17.13
2018-07-04T06:51:50.621Z,17.12
2018-07-04T06:52:50.638Z,17.12
2018-07-04T06:53:50.800Z,17.21
2018-07-04T06:54:50.673Z,17.13
2018-07-04T06:55:50.670Z,17.27
2018-07-04T06:56:50.684Z,17.25
2018-07-04T06:57:50.723Z,17.21
2018-07-04T06:58:50.859Z,17.27
2018-07-04T06:59:50.755Z,17.25
2018-07-04T07:00:50.769Z,17.32
2018-07-04T07:01:50.783Z,17.21
2018-07-04T07:02:50.791Z,17.21
2018-07-04T07:03:50.889Z,17.21
2018-07-04T07:04:50.791Z,17.20
2018-07-04T07:05:50.831Z,17.22
2018-07-04T07:06:50.820Z,17.20
2018-07-04T07:07:50.834Z,17.22
2018-07-04T07:08:50.942Z,17.21
2018-07-04T07:09:50.847Z,17.25
2018-07-04T07:10:50.890Z,17.22
2018-07-04T07:11:50.876Z,17.12
2018-07-04T07:12:50.903Z,17.13
2018-07-04T07:13:50.918Z,17.24
2018-07-04T07:14:51.095Z,17.22
2018-07-04T07:15:50.959Z,17.22
2018-07-04T07:16:50.950Z,17.24
2018-07-04T07:17:50.980Z,17.28
2018-07-04T07:18:50.997Z,17.27
2018-07-04T07:19:51.087Z,17.18
2018-07-04T07:20:51.026Z,17.18
2018-07-04T07:21:51.007Z,17.10
2018-07-04T07:22:51.046Z,17.06
2018-07-04T07:23:51.039Z,16.99
2018-07-04T07:24:51.158Z,16.97
2018-07-04T07:25:51.057Z,16.97
2018-07-04T07:26:51.071Z,16.92
2018-07-04T07:27:51.109Z,16.90
2018-07-04T07:28:51.096Z,16.87
2018-07-04T07:29:51.210Z,16.88
2018-07-04T07:30:51.121Z,16.88
2018-07-04T07:31:51.150Z,16.97
2018-07-04T07:32:51.150Z,16.91
2018-07-04T07:33:51.272Z,16.94
2018-07-04T07:34:51.281Z,16.95
2018-07-04T07:35:51.196Z,16.99
2018-07-04T07:36:51.224Z,16.99
2018-07-04T07:37:51.236Z,17.00
2018-07-04T07:38:51.226Z,16.91
2018-07-04T07:39:51.387Z,16.99
2018-07-04T07:40:51.281Z,16.92
2018-07-04T07:41:51.289Z,16.87
2018-07-04T07:42:51.299Z,16.91
2018-07-04T07:43:51.288Z,16.88
2018-07-04T07:44:51.481Z,16.95
2018-07-04T07:45:51.324Z,16.92
2018-07-04T07:46:51.339Z,16.97
2018-07-04T07:47:51.341Z,16.97
2018-07-04T07:48:51.405Z,16.97
2018-07-04T07:49:51.494Z,16.95
2018-07-04T07:50:51.377Z,17.00
2018-07-04T07:51:51.394Z,16.95
2018-07-04T07:52:51.423Z,16.97
2018-07-04T07:53:51.443Z,16.97
2018-07-04T07:54:51.561Z,17.03
2018-07-04T07:55:51.440Z,17.05
2018-07-04T07:56:51.457Z,17.07
2018-07-04T07:57:51.470Z,17.07
2018-07-04T07:58:51.495Z,17.05
2018-07-04T07:59:51.591Z,17.05
2018-07-04T08:00:51.508Z,17.10
2018-07-04T08:01:51.570Z,17.09
2018-07-04T08:02:51.559Z,17.07
2018-07-04T08:03:51.543Z,17.03
2018-07-04T08:04:51.714Z,17.00
2018-07-04T08:05:51.586Z,16.94
2018-07-04T08:06:51.606Z,16.94
2018-07-04T08:07:51.610Z,16.99
2018-07-04T08:08:51.636Z,16.97
2018-07-04T08:09:51.723Z,16.91
2018-07-04T08:10:51.659Z,16.85
2018-07-04T08:11:51.651Z,16.81
2018-07-04T08:12:51.666Z,16.82
2018-07-04T08:13:51.675Z,16.80
2018-07-04T08:14:51.787Z,16.81
2018-07-04T08:15:51.705Z,16.80
2018-07-04T08:16:51.735Z,16.70
2018-07-04T08:17:51.748Z,16.69
2018-07-04T08:18:51.814Z,16.74
2018-07-04T08:19:51.909Z,16.76
2018-07-04T08:20:51.768Z,16.74
2018-07-04T08:21:51.773Z,16.70
2018-07-04T08:22:51.817Z,16.76
2018-07-04T08:23:51.798Z,16.69
2018-07-04T08:24:51.814Z,16.73
2018-07-04T08:25:51.928Z,16.70
2018-07-04T08:26:51.836Z,16.76
2018-07-04T08:27:51.880Z,16.82
2018-07-04T08:28:51.867Z,16.85
2018-07-04T08:29:51.902Z,16.82
2018-07-04T08:30:51.916Z,16.85
2018-07-04T08:31:52.050Z,16.92
2018-07-04T08:32:51.914Z,16.92
2018-07-04T08:33:51.926Z,16.95
2018-07-04T08:34:51.936Z,16.99
2018-07-04T08:35:51.951Z,16.94
2018-07-04T08:36:52.117Z,17.05
2018-07-04T08:37:52.004Z,17.02
2018-07-04T08:38:52.022Z,17.05
2018-07-04T08:39:52.031Z,17.07
2018-07-04T08:40:52.023Z,17.03
2018-07-04T08:41:52.129Z,17.03
2018-07-04T08:42:52.047Z,17.07
2018-07-04T08:43:52.053Z,16.91
2018-07-04T08:44:52.071Z,16.94
2018-07-04T08:45:52.110Z,17.07
2018-07-04T08:46:52.200Z,17.05
2018-07-04T08:47:52.105Z,16.99
2018-07-04T08:48:52.124Z,17.03
2018-07-04T08:49:52.135Z,17.02
2018-07-04T08:50:52.213Z,17.06
2018-07-04T08:51:52.256Z,17.09
2018-07-04T08:52:52.227Z,17.05
2018-07-04T08:53:52.186Z,17.10
2018-07-04T08:54:52.205Z,17.12
2018-07-04T08:55:52.236Z,17.17
2018-07-04T08:56:52.400Z,17.10
2018-07-04T08:57:52.251Z,17.13
2018-07-04T08:58:52.279Z,17.17
2018-07-04T08:59:52.290Z,17.10
2018-07-04T09:00:52.297Z,17.06
2018-07-04T09:01:52.388Z,17.07
2018-07-04T09:02:52.300Z,17.10
2018-07-04T09:03:52.307Z,17.09
2018-07-04T09:04:52.326Z,17.12
2018-07-04T09:05:52.338Z,17.13
2018-07-04T09:06:52.454Z,17.07
2018-07-04T09:07:52.359Z,17.09
2018-07-04T09:08:52.408Z,17.07
2018-07-04T09:09:52.386Z,17.05
2018-07-04T09:10:52.401Z,17.06
2018-07-04T09:11:52.570Z,17.00
2018-07-04T09:12:52.425Z,17.05
2018-07-04T09:13:52.439Z,17.00
2018-07-04T09:14:52.484Z,17.02
2018-07-04T09:15:52.492Z,17.00
2018-07-04T09:16:52.593Z,17.07
2018-07-04T09:17:52.515Z,16.94
2018-07-04T09:18:52.501Z,17.05
2018-07-04T09:19:52.516Z,17.02
2018-07-04T09:20:52.548Z,17.05
2018-07-04T09:21:52.644Z,17.06
2018-07-04T09:22:52.566Z,17.07
2018-07-04T09:23:52.577Z,16.91
2018-07-04T09:24:52.606Z,16.95
2018-07-04T09:25:52.594Z,16.99
2018-07-04T09:26:52.712Z,16.88
2018-07-04T09:27:52.645Z,16.99
2018-07-04T09:28:52.635Z,16.91
2018-07-04T09:29:52.673Z,17.03
2018-07-04T09:30:52.664Z,16.95
2018-07-04T09:31:52.822Z,17.09
2018-07-04T09:32:52.685Z,17.03
2018-07-04T09:33:52.698Z,16.91
2018-07-04T09:34:52.733Z,16.99
2018-07-04T09:35:52.719Z,17.03
2018-07-04T09:36:52.886Z,17.02
2018-07-04T09:37:52.749Z,17.00
2018-07-04T09:38:52.788Z,16.97
2018-07-04T09:39:52.770Z,17.00
2018-07-04T09:40:52.789Z,17.05
2018-07-04T09:41:52.805Z,17.07
2018-07-04T09:42:52.923Z,16.87
2018-07-04T09:43:52.867Z,17.06
2018-07-04T09:44:52.838Z,16.97
2018-07-04T09:45:52.860Z,17.02
2018-07-04T09:46:52.859Z,17.00
2018-07-04T09:47:52.910Z,16.91
2018-07-04T09:48:53.036Z,16.94
2018-07-04T09:49:52.900Z,17.07
2018-07-04T09:50:52.942Z,16.97
2018-07-04T09:51:52.925Z,16.90
2018-07-04T09:52:52.939Z,16.91
2018-07-04T09:53:53.081Z,16.99
2018-07-04T09:54:52.989Z,16.97
2018-07-04T09:55:52.980Z,16.97
2018-07-04T09:56:53.004Z,16.94
2018-07-04T09:57:53.030Z,17.03
2018-07-04T09:58:53.253Z,16.95
2018-07-04T09:59:53.056Z,16.95
2018-07-04T10:00:53.065Z,16.99
2018-07-04T10:01:53.068Z,16.99
2018-07-04T10:02:53.069Z,17.00
2018-07-04T10:03:53.252Z,16.94
2018-07-04T10:04:53.117Z,16.95
2018-07-04T10:05:53.122Z,16.99
2018-07-04T10:06:53.125Z,16.95
2018-07-04T10:07:53.129Z,16.91
2018-07-04T10:08:53.319Z,17.02
2018-07-04T10:09:53.163Z,16.95
2018-07-04T10:10:53.169Z,17.00
2018-07-04T10:11:53.182Z,16.92
2018-07-04T10:12:53.222Z,17.02
2018-07-04T10:13:53.386Z,16.91
2018-07-04T10:14:53.225Z,17.06
2018-07-04T10:15:53.242Z,17.06
2018-07-04T10:16:53.246Z,17.05
2018-07-04T10:17:53.259Z,17.02
2018-07-04T10:18:53.402Z,17.10
2018-07-04T10:19:53.285Z,17.06
2018-07-04T10:20:53.291Z,17.05
2018-07-04T10:21:53.337Z,17.05
2018-07-04T10:22:53.332Z,17.10
2018-07-04T10:23:53.450Z,17.09
2018-07-04T10:24:53.358Z,17.10
2018-07-04T10:25:53.363Z,17.13
2018-07-04T10:26:53.377Z,17.18
2018-07-04T10:27:53.387Z,17.17
2018-07-04T10:28:53.506Z,17.22
2018-07-04T10:29:53.444Z,17.24
2018-07-04T10:30:53.426Z,17.24
2018-07-04T10:31:53.431Z,17.25
2018-07-04T10:32:53.458Z,17.32
2018-07-04T10:33:53.591Z,17.38
2018-07-04T10:34:53.508Z,17.30
2018-07-04T10:35:53.489Z,17.35
2018-07-04T10:36:53.531Z,17.31
2018-07-04T10:37:53.537Z,17.46
2018-07-04T10:38:53.632Z,17.47
2018-07-04T10:39:53.544Z,17.45
2018-07-04T10:40:53.580Z,17.47
2018-07-04T10:41:53.571Z,17.54
2018-07-04T10:42:53.609Z,17.43
2018-07-04T10:43:53.720Z,17.55
2018-07-04T10:44:53.641Z,17.49
2018-07-04T10:45:53.651Z,17.55
2018-07-04T10:46:53.636Z,17.58
2018-07-04T10:47:53.672Z,17.55
2018-07-04T10:48:53.810Z,17.52
2018-07-04T10:49:53.704Z,17.54
2018-07-04T10:50:53.709Z,17.62
2018-07-04T10:51:53.725Z,17.63
2018-07-04T10:52:53.741Z,17.73
2018-07-04T10:53:53.831Z,17.63
2018-07-04T10:54:53.736Z,17.65
2018-07-04T10:55:53.786Z,17.63
2018-07-04T10:56:53.766Z,17.62
2018-07-04T10:57:53.804Z,17.63
2018-07-04T10:58:53.897Z,17.71
2018-07-04T10:59:53.839Z,17.68
2018-07-04T11:00:53.845Z,17.66
2018-07-04T11:01:53.841Z,17.69
2018-07-04T11:02:53.848Z,17.66
2018-07-04T11:03:53.994Z,17.62
2018-07-04T11:04:53.898Z,17.52
2018-07-04T11:05:53.889Z,17.50
2018-07-04T11:06:53.910Z,17.54
2018-07-04T11:07:53.932Z,17.54
2018-07-04T11:08:54.082Z,17.45
2018-07-04T11:09:53.945Z,17.45
2018-07-04T11:10:53.980Z,17.49
2018-07-04T11:11:53.992Z,17.50
2018-07-04T11:12:53.988Z,17.49
2018-07-04T11:13:54.120Z,17.54
2018-07-04T11:14:54.014Z,17.50
2018-07-04T11:15:54.044Z,17.47
2018-07-04T11:16:54.068Z,17.60
2018-07-04T11:17:54.047Z,17.58
2018-07-04T11:18:54.221Z,17.55
2018-07-04T11:19:54.077Z,17.63
2018-07-04T11:20:54.093Z,17.65
2018-07-04T11:21:54.100Z,17.60
2018-07-04T11:22:54.142Z,17.49
2018-07-04T11:23:54.230Z,17.55
2018-07-04T11:24:54.145Z,17.49
2018-07-04T11:25:54.182Z,17.54
2018-07-04T11:26:54.170Z,17.54
2018-07-04T11:27:54.212Z,17.60
2018-07-04T11:28:54.307Z,17.65
2018-07-04T11:29:54.211Z,17.62
2018-07-04T11:30:54.215Z,17.60
2018-07-04T11:31:54.242Z,17.69
2018-07-04T11:32:54.276Z,17.68
2018-07-04T11:33:54.425Z,17.79
2018-07-04T11:34:54.275Z,17.79
2018-07-04T11:35:54.289Z,17.83
2018-07-04T11:36:54.302Z,17.81
2018-07-04T11:37:54.320Z,17.83
2018-07-04T11:38:54.485Z,17.71
2018-07-04T11:39:54.342Z,17.76
2018-07-04T11:40:54.384Z,17.73
2018-07-04T11:41:54.398Z,17.80
2018-07-04T11:42:54.387Z,17.80
2018-07-04T11:43:54.549Z,17.66
2018-07-04T11:44:54.439Z,17.65
2018-07-04T11:45:54.458Z,17.68
2018-07-04T11:46:54.461Z,17.68
2018-07-04T11:47:54.458Z,17.63
2018-07-04T11:48:54.569Z,17.62
2018-07-04T11:49:54.516Z,17.63
2018-07-04T11:50:54.519Z,17.79
2018-07-04T11:51:54.508Z,17.77
2018-07-04T11:52:54.535Z,17.77
2018-07-04T11:53:54.636Z,17.77
2018-07-04T11:54:54.573Z,17.73
2018-07-04T11:55:54.593Z,17.87
2018-07-04T11:56:54.585Z,17.88
2018-07-04T11:57:54.604Z,17.88
2018-07-04T11:58:54.765Z,17.96
2018-07-04T11:59:54.611Z,17.94
2018-07-04T12:00:54.627Z,17.95
2018-07-04T12:01:54.640Z,17.99
2018-07-04T12:02:54.683Z,17.96
2018-07-04T12:03:54.836Z,18.14
2018-07-04T12:04:54.685Z,18.19
2018-07-04T12:05:54.711Z,18.24
2018-07-04T12:06:54.715Z,18.27
2018-07-04T12:07:54.728Z,18.38
2018-07-04T12:08:54.752Z,18.36
2018-07-04T12:09:54.855Z,18.41
2018-07-04T12:10:54.852Z,18.47
2018-07-04T12:11:54.787Z,18.59
2018-07-04T12:12:54.826Z,18.69
2018-07-04T12:13:54.816Z,18.74
2018-07-04T12:14:54.837Z,18.82
2018-07-04T12:15:54.993Z,18.97
2018-07-04T12:16:54.859Z,19.10
2018-07-04T12:17:54.897Z,19.19
2018-07-04T12:18:54.888Z,19.34
2018-07-04T12:19:54.930Z,19.37
2018-07-04T12:20:55.088Z,19.49
2018-07-04T12:21:54.936Z,19.55
2018-07-04T12:22:54.953Z,19.50
2018-07-04T12:23:54.994Z,19.49
2018-07-04T12:24:54.983Z,19.50
2018-07-04T12:25:55.110Z,19.63
2018-07-04T12:26:55.067Z,19.56
2018-07-04T12:27:55.054Z,19.67
2018-07-04T12:28:55.043Z,19.75
2018-07-04T12:29:55.089Z,19.82
2018-07-04T12:30:55.183Z,19.83
2018-07-04T12:31:55.117Z,19.92
2018-07-04T12:32:55.106Z,19.83
2018-07-04T12:33:55.137Z,19.79
2018-07-04T12:34:55.150Z,19.82
2018-07-04T12:35:55.339Z,19.74
2018-07-04T12:36:55.176Z,19.67
2018-07-04T12:37:55.223Z,19.70
2018-07-04T12:38:55.213Z,19.74
2018-07-04T12:39:55.225Z,19.80
2018-07-04T12:40:55.365Z,19.90
2018-07-04T12:41:55.280Z,19.97
2018-07-04T12:42:55.278Z,20.20
2018-07-04T12:43:55.299Z,20.32
2018-07-04T12:44:55.332Z,20.40
2018-07-04T12:45:55.423Z,20.57
2018-07-04T12:46:55.395Z,20.72
2018-07-04T12:47:55.362Z,20.67
2018-07-04T12:48:55.389Z,20.67
2018-07-04T12:49:55.391Z,20.60
2018-07-04T12:50:55.534Z,20.63
2018-07-04T12:51:55.451Z,20.57
2018-07-04T12:52:55.468Z,20.66